Time;durP1;ratioP1;P1;durP2;ratioP2;P2;SDS_P1;SDS_P2;PMS_P1;PMS_P2;Temp;Humidity;BMP_temperature;BMP_pressure;BME280_temperature;BME280_humidity;BME280_pressure;Samples;Min_cycle;Max_cycle;Signal;HPM_P1;HPM_P2
2022/05/30 00:00:21;;;;;;;;;;;;;;;17.22;49.31;100666.19;4874807;28;97004;-79
2022/05/30 00:02:50;;;;;;;;;;;;;;;17.27;48.89;100664.06;4873176;28;97822;-79
2022/05/30 00:05:17;;;;;;;;;;;;;;;17.17;49.46;100669.16;4873807;28;99329;-78
2022/05/30 00:07:43;;;;;;;;;;;;;;;16.73;50.72;100664.84;4872494;28;98640;-78
2022/05/30 00:10:10;;;;;;;;;;;;;;;17.01;50.17;100661.25;4873006;28;97139;-79
2022/05/30 00:12:37;;;;;;;;;;;;;;;17.02;50.14;100663.00;4870731;28;99291;-78
2022/05/30 00:15:04;;;;;;;;;;;;;;;16.97;50.71;100667.75;4873068;28;99553;-79
2022/05/30 00:17:30;;;;;;;;;;;;;;;16.66;51.17;100671.50;4872589;28;96966;-78
2022/05/30 00:19:58;;;;;;;;;;;;;;;16.87;50.47;100663.13;4874635;28;97335;-77
2022/05/30 00:22:24;;;;;;;;;;;;;;;17.01;50.41;100663.94;4870986;28;99088;-78
2022/05/30 00:24:50;;;;;;;;;;;;;;;16.84;50.78;100666.81;4873150;28;98772;-77
2022/05/30 00:27:18;;;;;;;;;;;;;;;17.02;50.15;100668.31;4873704;28;96967;-77
2022/05/30 00:29:44;;;;;;;;;;;;;;;16.79;50.74;100668.06;4875426;28;96853;-77
2022/05/30 00:32:11;;;;;;;;;;;;;;;16.65;51.23;100671.59;4871940;28;99052;-80
2022/05/30 00:34:37;;;;;;;;;;;;;;;16.38;52.48;100678.56;4872970;28;98911;-78
2022/05/30 00:37:05;;;;;;;;;;;;;;;16.46;52.20;100678.97;4875050;28;96887;-78
2022/05/30 00:39:32;;;;;;;;;;;;;;;16.33;52.86;100682.38;4875575;28;96936;-78
2022/05/30 00:42:06;;;;;;;;;;;;;;;16.60;52.21;100679.03;4872138;28;98916;-78
2022/05/30 00:44:33;;;;;;;;;;;;;;;16.81;51.12;100683.00;4872131;28;98934;-78
2022/05/30 00:46:59;;;;;;;;;;;;;;;16.66;51.72;100678.66;4872810;28;97242;-77
2022/05/30 00:49:25;;;;;;;;;;;;;;;16.83;51.41;100682.91;4873183;28;96991;-79
2022/05/30 00:51:55;;;;;;;;;;;;;;;16.74;51.49;100687.00;4874374;28;99085;-77
2022/05/30 00:54:25;;;;;;;;;;;;;;;16.84;50.78;100682.84;4871378;28;97568;-77
2022/05/30 00:56:54;;;;;;;;;;;;;;;16.76;51.31;100685.13;4872069;28;97097;-79
2022/05/30 00:59:20;;;;;;;;;;;;;;;16.89;50.85;100686.06;4871621;28;97424;-79
2022/05/30 01:01:47;;;;;;;;;;;;;;;16.89;50.66;100687.88;4871870;28;97777;-78
2022/05/30 01:06:59;;;;;;;;;;;;;;;16.92;50.87;100685.03;4871463;28;97161;-79
2022/05/30 01:09:28;;;;;;;;;;;;;;;17.01;50.58;100682.63;4873638;28;96953;-79
2022/05/30 01:11:57;;;;;;;;;;;;;;;17.09;50.25;100677.66;4872543;28;99392;-79
2022/05/30 01:14:24;;;;;;;;;;;;;;;16.93;50.85;100684.06;4884738;28;96647;-80
2022/05/30 01:16:50;;;;;;;;;;;;;;;16.81;51.34;100680.34;4878657;28;97020;-78
2022/05/30 01:19:33;;;;;;;;;;;;;;;16.93;51.10;100676.06;4879055;28;96910;-78
2022/05/30 01:22:08;;;;;;;;;;;;;;;17.00;51.27;100680.06;4875117;28;98933;-78
2022/05/30 01:24:43;;;;;;;;;;;;;;;16.96;51.53;100682.06;4870997;28;99251;-78
2022/05/30 01:27:19;;;;;;;;;;;;;;;17.00;51.85;100680.06;4871485;28;96903;-78
2022/05/30 01:29:49;;;;;;;;;;;;;;;16.77;52.65;100685.97;4871601;28;97006;-78
2022/05/30 01:32:17;;;;;;;;;;;;;;;16.85;53.01;100681.03;4869390;28;98329;-78
2022/05/30 01:34:43;;;;;;;;;;;;;;;16.88;52.69;100676.34;4870192;28;98860;-77
2022/05/30 01:37:09;;;;;;;;;;;;;;;16.77;53.29;100676.16;4872085;28;97156;-77
2022/05/30 01:39:36;;;;;;;;;;;;;;;16.82;53.06;100673.19;4872888;28;97140;-77
2022/05/30 01:42:03;;;;;;;;;;;;;;;16.82;53.20;100679.38;4871377;28;100306;-77
2022/05/30 01:44:29;;;;;;;;;;;;;;;16.81;53.22;100677.66;4871600;28;98729;-76
2022/05/30 01:46:57;;;;;;;;;;;;;;;16.86;52.89;100680.06;4873177;28;97793;-77
2022/05/30 01:49:23;;;;;;;;;;;;;;;16.65;53.47;100679.59;4874080;28;97141;-78
2022/05/30 01:51:53;;;;;;;;;;;;;;;16.73;53.38;100679.97;4872649;28;101785;-76
2022/05/30 01:54:20;;;;;;;;;;;;;;;16.85;53.02;100679.22;4872329;28;101347;-79
2022/05/30 01:56:46;;;;;;;;;;;;;;;17.01;52.84;100674.63;4872051;28;97057;-79
2022/05/30 01:59:12;;;;;;;;;;;;;;;16.87;52.90;100671.94;4875569;28;96930;-78
2022/05/30 02:01:39;;;;;;;;;;;;;;;16.54;53.38;100674.03;4874386;28;97929;-79
2022/05/30 02:04:07;;;;;;;;;;;;;;;16.78;53.26;100677.03;4870095;28;98675;-80
2022/05/30 02:06:35;;;;;;;;;;;;;;;16.70;53.25;100674.81;4871997;28;96817;-79
2022/05/30 02:09:01;;;;;;;;;;;;;;;16.18;54.85;100677.97;4874578;28;96942;-79
2022/05/30 02:11:27;;;;;;;;;;;;;;;16.44;54.01;100675.53;4876673;28;99140;-78
2022/05/30 02:13:54;;;;;;;;;;;;;;;16.56;53.51;100672.09;4877876;28;101184;-79
2022/05/30 02:19:04;;;;;;;;;;;;;;;16.60;54.03;100673.69;4873655;28;96795;-79
2022/05/30 02:21:34;;;;;;;;;;;;;;;16.75;53.87;100670.06;4874293;28;98829;-80
2022/05/30 02:24:00;;;;;;;;;;;;;;;16.26;54.66;100682.84;4873000;28;101354;-79
2022/05/30 02:26:26;;;;;;;;;;;;;;;16.25;54.82;100678.44;4873130;28;97719;-78
2022/05/30 02:28:52;;;;;;;;;;;;;;;16.37;54.93;100684.84;4875982;28;99132;-78
2022/05/30 02:31:18;;;;;;;;;;;;;;;16.45;55.05;100677.25;4873379;28;98066;-78
2022/05/30 02:36:40;;;;;;;;;;;;;;;16.33;55.50;100677.06;4868170;28;96864;-78
2022/05/30 02:39:08;;;;;;;;;;;;;;;16.34;56.22;100675.25;4877073;28;96867;-77
2022/05/30 02:41:35;;;;;;;;;;;;;;;16.45;55.43;100680.78;4870816;28;99314;-79
2022/05/30 02:44:01;;;;;;;;;;;;;;;15.77;57.02;100676.84;4874139;28;99092;-78
2022/05/30 02:46:27;;;;;;;;;;;;;;;16.29;56.33;100680.84;4870058;28;96906;-77
2022/05/30 02:48:53;;;;;;;;;;;;;;;16.54;55.14;100680.19;4872905;28;96960;-78
2022/05/30 02:51:20;;;;;;;;;;;;;;;16.43;55.21;100677.34;4874309;28;98981;-78
2022/05/30 02:53:46;;;;;;;;;;;;;;;16.23;55.50;100675.88;4872005;28;98864;-78
2022/05/30 02:56:15;;;;;;;;;;;;;;;15.76;57.08;100677.81;4879913;28;96857;-83
2022/05/30 02:58:45;;;;;;;;;;;;;;;15.94;56.75;100680.28;4884881;28;96737;-81
2022/05/30 03:01:11;;;;;;;;;;;;;;;16.15;56.28;100687.94;4883804;28;100522;-80
2022/05/30 03:03:38;;;;;;;;;;;;;;;16.18;55.94;100690.44;4882052;28;98988;-80
2022/05/30 03:06:05;;;;;;;;;;;;;;;16.18;55.95;100693.94;4883520;28;96794;-82
2022/05/30 03:08:31;;;;;;;;;;;;;;;16.14;56.16;100688.91;4879841;28;98629;-78
2022/05/30 03:10:58;;;;;;;;;;;;;;;15.67;57.19;100683.69;4874890;28;97823;-78
2022/05/30 03:13:25;;;;;;;;;;;;;;;15.21;58.85;100691.56;4874881;28;97865;-79
2022/05/30 03:15:52;;;;;;;;;;;;;;;15.65;57.45;100688.22;4877391;28;97332;-79
2022/05/30 03:18:18;;;;;;;;;;;;;;;15.44;58.17;100685.81;4875354;28;97067;-79
2022/05/30 03:20:44;;;;;;;;;;;;;;;15.02;59.15;100686.41;4876511;28;99055;-78
2022/05/30 03:23:11;;;;;;;;;;;;;;;15.47;58.59;100690.97;4874734;28;99010;-76
2022/05/30 03:25:37;;;;;;;;;;;;;;;15.71;57.83;100694.06;4871631;28;96979;-77
2022/05/30 03:28:03;;;;;;;;;;;;;;;15.69;58.31;100697.75;4872783;28;97061;-78
2022/05/30 03:30:36;;;;;;;;;;;;;;;15.82;58.07;100698.75;4875671;28;99272;-77
2022/05/30 03:33:03;;;;;;;;;;;;;;;15.34;59.85;100700.59;4874704;28;98767;-76
2022/05/30 03:35:29;;;;;;;;;;;;;;;15.47;59.97;100700.75;4874319;28;96830;-78
2022/05/30 03:37:55;;;;;;;;;;;;;;;15.74;59.94;100703.69;4870973;28;96828;-78
2022/05/30 03:40:22;;;;;;;;;;;;;;;16.10;58.90;100706.00;4877642;28;98149;-79
2022/05/30 03:42:48;;;;;;;;;;;;;;;15.83;59.52;100692.47;4879362;28;97678;-80
2022/05/30 03:45:14;;;;;;;;;;;;;;;15.89;59.13;100687.66;4876859;28;96931;-79
2022/05/30 03:47:42;;;;;;;;;;;;;;;15.62;60.16;100693.75;4869427;28;97228;-81
2022/05/30 03:50:11;;;;;;;;;;;;;;;15.75;59.68;100692.94;4876476;28;98909;-78
2022/05/30 03:52:37;;;;;;;;;;;;;;;15.22;61.78;100679.97;4881405;28;97035;-79
2022/05/30 03:55:04;;;;;;;;;;;;;;;15.25;61.86;100693.09;4881358;28;97830;-79
2022/05/30 03:57:30;;;;;;;;;;;;;;;15.45;61.60;100690.19;4880113;28;96907;-78
2022/05/30 03:59:57;;;;;;;;;;;;;;;15.47;60.90;100696.28;4881773;28;99220;-77
2022/05/30 04:02:24;;;;;;;;;;;;;;;15.47;60.76;100693.63;4879919;28;99029;-77
2022/05/30 04:04:52;;;;;;;;;;;;;;;15.47;60.69;100695.44;4875211;28;96880;-77
2022/05/30 04:07:18;;;;;;;;;;;;;;;15.91;59.20;100695.56;4875497;28;96956;-78
2022/05/30 04:09:45;;;;;;;;;;;;;;;15.55;59.67;100695.91;4875303;28;97573;-78
2022/05/30 04:12:11;;;;;;;;;;;;;;;15.30;60.43;100693.69;4876311;28;98922;-77
2022/05/30 04:14:37;;;;;;;;;;;;;;;15.61;59.62;100700.00;4876037;28;96883;-79
2022/05/30 04:17:04;;;;;;;;;;;;;;;15.23;60.71;100704.78;4878884;28;97552;-76
2022/05/30 04:19:30;;;;;;;;;;;;;;;15.29;60.17;100701.78;4875456;28;99405;-77
2022/05/30 04:21:58;;;;;;;;;;;;;;;15.43;59.73;100708.03;4873910;28;99512;-77
2022/05/30 04:24:24;;;;;;;;;;;;;;;15.56;59.52;100705.56;4872140;28;98364;-77
2022/05/30 04:26:50;;;;;;;;;;;;;;;14.62;61.26;100713.41;4870900;28;97359;-77
2022/05/30 04:29:16;;;;;;;;;;;;;;;14.87;61.76;100715.63;4872834;28;97871;-78
2022/05/30 04:31:43;;;;;;;;;;;;;;;15.50;60.41;100719.22;4871838;28;98980;-77
2022/05/30 04:34:09;;;;;;;;;;;;;;;15.95;59.10;100723.75;4872721;28;98524;-77
2022/05/30 04:36:35;;;;;;;;;;;;;;;16.21;57.89;100720.41;4870289;28;96903;-78
2022/05/30 04:39:03;;;;;;;;;;;;;;;15.38;59.68;100715.44;4874032;28;100589;-78
2022/05/30 04:41:29;;;;;;;;;;;;;;;15.54;59.80;100719.00;4872464;28;98902;-79
2022/05/30 04:43:59;;;;;;;;;;;;;;;15.60;59.75;100715.13;4875003;28;99115;-77
2022/05/30 04:46:25;;;;;;;;;;;;;;;15.99;58.45;100719.97;4869503;28;97011;-78
2022/05/30 04:48:51;;;;;;;;;;;;;;;16.19;58.06;100719.66;4869180;28;98150;-79
2022/05/30 04:51:18;;;;;;;;;;;;;;;16.31;57.24;100728.75;4872939;28;98808;-78
2022/05/30 04:53:44;;;;;;;;;;;;;;;16.26;56.70;100722.84;4874292;28;96982;-78
2022/05/30 04:56:12;;;;;;;;;;;;;;;16.35;56.52;100720.47;4874953;28;96866;-80
2022/05/30 04:58:38;;;;;;;;;;;;;;;16.16;57.16;100722.50;4876743;28;100032;-80
2022/05/30 05:01:06;;;;;;;;;;;;;;;16.12;56.98;100726.31;4876806;28;98795;-79
2022/05/30 05:03:33;;;;;;;;;;;;;;;16.27;57.07;100732.56;4876738;28;97364;-78
2022/05/30 05:06:00;;;;;;;;;;;;;;;16.18;56.75;100731.28;4875722;28;96815;-79
2022/05/30 05:08:34;;;;;;;;;;;;;;;16.59;56.06;100730.63;4868885;28;101219;-77
2022/05/30 05:11:04;;;;;;;;;;;;;;;16.15;55.98;100739.44;4874770;28;98820;-78
2022/05/30 05:13:32;;;;;;;;;;;;;;;16.24;56.07;100736.25;4869257;28;97699;-79
2022/05/30 05:15:58;;;;;;;;;;;;;;;16.49;55.44;100740.09;4868471;28;96950;-78
2022/05/30 05:18:24;;;;;;;;;;;;;;;16.82;54.91;100743.44;4872967;28;101666;-79
2022/05/30 05:20:51;;;;;;;;;;;;;;;16.98;54.89;100749.56;4870589;28;98775;-79
2022/05/30 05:23:17;;;;;;;;;;;;;;;17.02;54.58;100748.41;4872889;28;97753;-78
2022/05/30 05:25:44;;;;;;;;;;;;;;;16.79;53.90;100750.78;4870126;28;97224;-77
2022/05/30 05:28:10;;;;;;;;;;;;;;;16.92;54.13;100749.94;4876166;28;99328;-78
2022/05/30 05:30:40;;;;;;;;;;;;;;;16.51;54.02;100755.09;4871810;28;98733;-78
2022/05/30 05:33:06;;;;;;;;;;;;;;;16.53;54.82;100750.53;4878571;28;97642;-78
2022/05/30 05:35:32;;;;;;;;;;;;;;;16.48;54.17;100754.38;4874954;28;98818;-78
2022/05/30 05:38:00;;;;;;;;;;;;;;;16.08;55.08;100751.41;4878079;28;99270;-78
2022/05/30 05:40:27;;;;;;;;;;;;;;;16.30;54.58;100753.69;4877703;28;98842;-78
2022/05/30 05:42:53;;;;;;;;;;;;;;;16.86;53.95;100760.13;4879737;28;96851;-80
2022/05/30 05:45:20;;;;;;;;;;;;;;;17.12;53.14;100754.03;4882819;28;96943;-79
2022/05/30 05:47:48;;;;;;;;;;;;;;;17.33;52.36;100744.66;4884822;28;97755;-79
2022/05/30 05:50:16;;;;;;;;;;;;;;;17.36;52.08;100748.97;4881414;28;99182;-78
2022/05/30 05:52:42;;;;;;;;;;;;;;;17.77;52.29;100743.66;4880085;28;96707;-78
2022/05/30 05:55:08;;;;;;;;;;;;;;;17.58;52.09;100752.00;4877933;28;96739;-77
2022/05/30 05:57:35;;;;;;;;;;;;;;;17.23;53.05;100753.38;4877108;28;99422;-79
2022/05/30 06:00:01;;;;;;;;;;;;;;;17.40;51.96;100754.00;4877104;28;97897;-80
2022/05/30 06:02:30;;;;;;;;;;;;;;;16.81;53.47;100759.53;4878852;28;96743;-79
2022/05/30 06:04:58;;;;;;;;;;;;;;;16.96;54.02;100763.94;4875119;28;96852;-77
2022/05/30 06:07:24;;;;;;;;;;;;;;;16.79;53.74;100765.00;4877064;28;102112;-78
2022/05/30 06:09:50;;;;;;;;;;;;;;;16.81;53.54;100765.72;4878941;28;96830;-79
2022/05/30 06:12:17;;;;;;;;;;;;;;;16.75;53.80;100768.78;4876092;28;97517;-79
2022/05/30 06:14:43;;;;;;;;;;;;;;;17.14;52.90;100776.16;4876004;28;97328;-77
2022/05/30 06:17:09;;;;;;;;;;;;;;;16.56;53.48;100769.00;4874919;28;99029;-78
2022/05/30 06:19:36;;;;;;;;;;;;;;;16.96;52.14;100772.81;4875568;28;96784;-78
2022/05/30 06:22:04;;;;;;;;;;;;;;;16.11;52.97;100771.69;4876945;28;96903;-77
2022/05/30 06:24:30;;;;;;;;;;;;;;;15.95;53.68;100772.56;4874325;28;98636;-78
2022/05/30 06:26:56;;;;;;;;;;;;;;;17.03;52.31;100778.63;4873455;28;99504;-78
2022/05/30 06:29:23;;;;;;;;;;;;;;;15.98;52.98;100771.56;4868999;28;101584;-78
2022/05/30 06:31:49;;;;;;;;;;;;;;;16.32;52.33;100770.47;4875443;28;96837;-79
2022/05/30 06:34:16;;;;;;;;;;;;;;;16.41;52.10;100777.91;4871251;28;97298;-78
2022/05/30 06:36:42;;;;;;;;;;;;;;;16.86;51.35;100776.16;4875272;28;101782;-78
2022/05/30 06:39:11;;;;;;;;;;;;;;;17.00;50.79;100786.84;4874359;28;100782;-78
2022/05/30 06:41:37;;;;;;;;;;;;;;;17.23;49.92;100790.75;4876120;28;96873;-79
2022/05/30 06:44:06;;;;;;;;;;;;;;;17.40;49.83;100779.84;4877378;28;97190;-79
2022/05/30 06:46:34;;;;;;;;;;;;;;;17.91;48.84;100781.91;4877016;28;97148;-79
2022/05/30 06:49:00;;;;;;;;;;;;;;;17.75;48.42;100777.66;4876779;28;98936;-80
2022/05/30 06:51:28;;;;;;;;;;;;;;;17.41;48.65;100781.56;4874799;28;96683;-80
2022/05/30 06:53:55;;;;;;;;;;;;;;;17.80;47.75;100773.72;4873987;28;97385;-79
2022/05/30 06:56:23;;;;;;;;;;;;;;;17.47;49.04;100783.84;4873741;28;99343;-79
2022/05/30 06:58:51;;;;;;;;;;;;;;;18.00;48.13;100782.25;4872909;28;98862;-77
2022/05/30 07:01:18;;;;;;;;;;;;;;;18.45;46.69;100792.56;4874213;28;97651;-79
2022/05/30 07:03:45;;;;;;;;;;;;;;;18.20;46.31;100779.97;4870266;28;97533;-78
2022/05/30 07:06:13;;;;;;;;;;;;;;;18.43;45.33;100785.63;4872981;28;99322;-78
2022/05/30 07:08:39;;;;;;;;;;;;;;;18.28;46.08;100784.81;4872473;28;98320;-79
2022/05/30 07:11:06;;;;;;;;;;;;;;;17.85;46.69;100786.81;4873633;28;97211;-78
2022/05/30 07:13:34;;;;;;;;;;;;;;;17.92;47.43;100785.41;4873962;28;97929;-78
2022/05/30 07:16:01;;;;;;;;;;;;;;;18.10;46.76;100789.59;4873002;28;99241;-79
2022/05/30 07:18:27;;;;;;;;;;;;;;;18.00;47.35;100793.78;4873640;28;100879;-77
2022/05/30 07:20:57;;;;;;;;;;;;;;;17.84;47.15;100793.09;4871621;28;96897;-78
2022/05/30 07:23:24;;;;;;;;;;;;;;;17.99;47.67;100793.88;4873680;28;96940;-78
2022/05/30 07:25:51;;;;;;;;;;;;;;;18.24;47.62;100794.88;4868389;28;99060;-78
2022/05/30 07:28:18;;;;;;;;;;;;;;;18.56;45.63;100792.75;4872936;28;99922;-77
2022/05/30 07:30:45;;;;;;;;;;;;;;;17.86;46.58;100796.50;4879040;28;97042;-78
2022/05/30 07:33:11;;;;;;;;;;;;;;;18.20;45.67;100795.16;4874086;28;97209;-78
2022/05/30 07:35:38;;;;;;;;;;;;;;;18.21;46.51;100794.22;4872888;28;101538;-77
2022/05/30 07:38:04;;;;;;;;;;;;;;;18.05;46.65;100796.19;4871571;28;102527;-78
2022/05/30 07:40:30;;;;;;;;;;;;;;;17.90;47.65;100798.03;4871013;28;96784;-78
2022/05/30 07:42:57;;;;;;;;;;;;;;;16.92;49.67;100805.13;4874059;28;97635;-78
2022/05/30 07:45:23;;;;;;;;;;;;;;;16.96;49.42;100812.84;4872574;28;98878;-78
2022/05/30 07:47:51;;;;;;;;;;;;;;;17.34;48.90;100806.94;4871828;28;98171;-80
2022/05/30 07:50:17;;;;;;;;;;;;;;;17.63;47.25;100811.38;4873018;28;97031;-79
2022/05/30 07:52:44;;;;;;;;;;;;;;;17.54;47.34;100807.41;4873220;28;97274;-80
2022/05/30 07:55:10;;;;;;;;;;;;;;;17.75;46.79;100817.72;4875278;28;99042;-79
2022/05/30 07:57:53;;;;;;;;;;;;;;;17.81;46.02;100823.53;4874310;28;102305;-81
2022/05/30 08:00:20;;;;;;;;;;;;;;;17.58;46.57;100826.81;4873099;28;96844;-78
2022/05/30 08:02:46;;;;;;;;;;;;;;;17.36;46.30;100827.28;4864921;28;98155;-78
2022/05/30 08:05:15;;;;;;;;;;;;;;;17.92;45.93;100825.50;4873951;28;98451;-77
2022/05/30 08:07:42;;;;;;;;;;;;;;;18.16;46.09;100825.75;4873601;28;100292;-80
2022/05/30 08:10:09;;;;;;;;;;;;;;;18.00;45.52;100833.03;4874545;28;96979;-80
2022/05/30 08:12:35;;;;;;;;;;;;;;;17.74;45.59;100832.91;4873677;28;96826;-81
2022/05/30 08:15:02;;;;;;;;;;;;;;;17.65;45.74;100836.19;4873869;28;101148;-79
2022/05/30 08:17:28;;;;;;;;;;;;;;;17.73;45.15;100833.00;4875276;28;98755;-79
2022/05/30 08:19:54;;;;;;;;;;;;;;;17.78;45.03;100836.25;4872424;28;96847;-79
2022/05/30 08:22:22;;;;;;;;;;;;;;;18.39;43.56;100826.88;4871098;28;96944;-78
2022/05/30 08:24:51;;;;;;;;;;;;;;;18.40;43.39;100834.81;4875356;28;99586;-78
2022/05/30 08:27:17;;;;;;;;;;;;;;;18.32;43.72;100835.31;4873021;28;99251;-79
2022/05/30 08:29:43;;;;;;;;;;;;;;;18.31;43.99;100843.47;4872582;28;96870;-79
2022/05/30 08:32:11;;;;;;;;;;;;;;;18.44;44.39;100844.38;4872166;28;96960;-79
2022/05/30 08:34:38;;;;;;;;;;;;;;;18.46;44.40;100841.56;4874039;28;101951;-79
2022/05/30 08:37:05;;;;;;;;;;;;;;;18.70;43.32;100840.84;4873392;28;98946;-79
2022/05/30 08:42:17;;;;;;;;;;;;;;;19.51;41.07;100832.53;4882007;28;96753;-79
2022/05/30 08:44:44;;;;;;;;;;;;;;;18.79;42.36;100839.34;4874159;28;99022;-80
2022/05/30 08:47:13;;;;;;;;;;;;;;;19.37;42.22;100841.53;4877290;28;98775;-79
2022/05/30 08:49:45;;;;;;;;;;;;;;;18.95;42.54;100839.16;4884110;28;96948;-78
2022/05/30 08:52:26;;;;;;;;;;;;;;;18.54;42.31;100852.63;4874881;28;97576;-78
2022/05/30 08:55:02;;;;;;;;;;;;;;;18.82;41.25;100844.50;4870224;28;96913;-78
2022/05/30 08:57:35;;;;;;;;;;;;;;;20.29;38.95;100847.34;4873187;28;97572;-78
2022/05/30 09:00:06;;;;;;;;;;;;;;;20.11;39.05;100846.03;4875900;28;96761;-79
2022/05/30 09:02:37;;;;;;;;;;;;;;;20.22;38.51;100843.38;4877237;28;97131;-78
2022/05/30 09:05:06;;;;;;;;;;;;;;;19.36;39.88;100847.84;4874583;28;99276;-78
2022/05/30 09:07:39;;;;;;;;;;;;;;;18.90;40.73;100844.84;4874723;28;98858;-79
2022/05/30 09:10:09;;;;;;;;;;;;;;;19.51;39.91;100848.63;4873298;28;97145;-79
2022/05/30 09:12:39;;;;;;;;;;;;;;;19.84;39.79;100851.56;4875679;28;96881;-79
2022/05/30 09:15:08;;;;;;;;;;;;;;;18.54;40.95;100844.59;4880857;28;99604;-78
2022/05/30 09:17:38;;;;;;;;;;;;;;;18.51;40.70;100848.34;4882707;28;98861;-78
2022/05/30 09:20:06;;;;;;;;;;;;;;;20.02;38.89;100848.53;4875043;28;97713;-79
2022/05/30 09:22:32;;;;;;;;;;;;;;;20.05;38.18;100840.25;4872742;28;96898;-79
2022/05/30 09:27:44;;;;;;;;;;;;;;;19.44;38.36;100839.25;4870479;28;98047;-79
2022/05/30 09:30:15;;;;;;;;;;;;;;;19.95;38.32;100837.41;4875325;28;97137;-78
2022/05/30 09:32:46;;;;;;;;;;;;;;;20.03;37.00;100835.00;4874100;28;97103;-78
2022/05/30 09:35:20;;;;;;;;;;;;;;;19.71;37.88;100831.09;4879514;28;100478;-78
2022/05/30 09:37:46;;;;;;;;;;;;;;;20.08;37.18;100826.63;4877873;28;98059;-78
2022/05/30 09:40:13;;;;;;;;;;;;;;;19.93;38.25;100831.28;4880246;28;98841;-80
2022/05/30 09:42:48;;;;;;;;;;;;;;;20.72;36.40;100829.88;4878535;28;98384;-79
2022/05/30 09:45:25;;;;;;;;;;;;;;;20.06;36.43;100833.91;4880102;28;99149;-78
2022/05/30 09:47:58;;;;;;;;;;;;;;;20.33;36.38;100834.59;4876471;28;98753;-78
2022/05/30 09:50:25;;;;;;;;;;;;;;;20.76;35.77;100832.19;4876597;28;97480;-79
2022/05/30 09:52:51;;;;;;;;;;;;;;;19.95;36.98;100828.50;4865329;28;96922;-77
2022/05/30 09:55:25;;;;;;;;;;;;;;;20.47;36.75;100828.19;4877088;28;98913;-78
2022/05/30 10:00:39;;;;;;;;;;;;;;;20.43;35.66;100821.31;4878558;28;97183;-78
2022/05/30 10:03:10;;;;;;;;;;;;;;;20.63;35.77;100824.22;4874073;28;96907;-80
2022/05/30 10:05:38;;;;;;;;;;;;;;;20.68;35.31;100818.50;4875181;28;99299;-79
2022/05/30 10:08:07;;;;;;;;;;;;;;;21.08;34.70;100830.56;4874251;28;99184;-78
2022/05/30 10:10:37;;;;;;;;;;;;;;;21.73;34.11;100812.91;4875790;28;97376;-78
2022/05/30 10:13:05;;;;;;;;;;;;;;;21.30;33.80;100821.72;4873661;28;97170;-79
2022/05/30 10:15:32;;;;;;;;;;;;;;;20.41;34.69;100820.59;4874755;28;99203;-78
2022/05/30 10:18:16;;;;;;;;;;;;;;;20.12;35.95;100815.53;4877578;28;99050;-79
2022/05/30 10:20:48;;;;;;;;;;;;;;;18.95;37.15;100825.78;4878280;28;96905;-78
2022/05/30 10:29:35;;;;;;;;;;;;;;;20.85;32.99;100826.13;4776493;29;97398;-78
2022/05/30 10:32:05;;;;;;;;;;;;;;;21.13;32.11;100826.69;4791138;29;96982;-79
2022/05/30 10:34:39;;;;;;;;;;;;;;;21.73;31.57;100820.97;4828675;28;97186;-78
2022/05/30 10:37:15;;;;;;;;;;;;;;;22.24;31.73;100821.28;4873275;28;101919;-80
2022/05/30 10:40:00;;;;;;;;;;;;;;;22.12;30.89;100811.53;4875833;28;99602;-78
2022/05/30 10:42:30;;;;;;;;;;;;;;;21.65;31.42;100826.13;4874648;28;96804;-79
2022/05/30 10:44:58;;;;;;;;;;;;;;;20.64;32.43;100830.44;4874675;28;96907;-79
2022/05/30 10:47:35;;;;;;;;;;;;;;;20.69;33.16;100830.94;4867569;28;97969;-78
2022/05/30 10:50:03;;;;;;;;;;;;;;;20.91;33.14;100825.66;4870288;28;100226;-79
2022/05/30 10:52:33;;;;;;;;;;;;;;;20.37;33.65;100825.34;4864909;28;97196;-77
2022/05/30 10:55:02;;;;;;;;;;;;;;;19.86;34.30;100817.47;4873545;28;96936;-78
2022/05/30 10:57:42;;;;;;;;;;;;;;;20.05;34.46;100824.16;4875790;28;99855;-77
2022/05/30 11:00:11;;;;;;;;;;;;;;;19.48;34.34;100830.94;4873992;28;98704;-76
2022/05/30 11:02:43;;;;;;;;;;;;;;;19.76;33.66;100828.94;4875555;28;97020;-76
2022/05/30 11:05:12;;;;;;;;;;;;;;;19.48;32.72;100822.91;4870948;28;99027;-77
2022/05/30 11:07:45;;;;;;;;;;;;;;;20.18;32.45;100820.44;4872541;28;101054;-77
2022/05/30 11:10:19;;;;;;;;;;;;;;;19.42;33.07;100828.69;4872397;28;98929;-77
2022/05/30 11:12:48;;;;;;;;;;;;;;;19.89;32.50;100819.03;4870434;28;97193;-77
2022/05/30 11:15:20;;;;;;;;;;;;;;;19.96;32.37;100823.00;4874265;28;97589;-77
2022/05/30 11:17:49;;;;;;;;;;;;;;;19.35;33.75;100830.06;4873440;28;98860;-77
2022/05/30 11:20:18;;;;;;;;;;;;;;;19.49;33.75;100819.25;4876714;28;99200;-78
2022/05/30 11:22:48;;;;;;;;;;;;;;;19.71;33.71;100825.75;4878127;28;96937;-77
2022/05/30 11:25:15;;;;;;;;;;;;;;;20.63;32.47;100826.06;4872515;28;97179;-79
2022/05/30 11:27:43;;;;;;;;;;;;;;;19.99;33.06;100820.09;4871324;28;99030;-78
2022/05/30 11:30:17;;;;;;;;;;;;;;;20.16;33.38;100822.38;4875150;28;99457;-77
2022/05/30 11:32:53;;;;;;;;;;;;;;;20.27;33.35;100826.97;4872749;28;98373;-77
2022/05/30 11:35:26;;;;;;;;;;;;;;;20.11;33.78;100819.19;4872508;28;98377;-77
2022/05/30 11:38:04;;;;;;;;;;;;;;;20.95;32.46;100827.13;4869267;28;98972;-77
2022/05/30 11:40:34;;;;;;;;;;;;;;;21.00;32.96;100830.28;4873548;28;98930;-77
2022/05/30 11:43:17;;;;;;;;;;;;;;;20.68;33.61;100824.72;4872355;28;97004;-77
2022/05/30 11:45:53;;;;;;;;;;;;;;;19.85;34.66;100833.66;4870969;28;96794;-77
2022/05/30 11:48:26;;;;;;;;;;;;;;;20.47;33.85;100829.06;4878110;28;98774;-78
2022/05/30 11:50:55;;;;;;;;;;;;;;;20.70;33.98;100827.28;4872470;28;99138;-77
2022/05/30 11:53:41;;;;;;;;;;;;;;;20.34;34.51;100835.47;4872555;28;97104;-76
2022/05/30 11:56:12;;;;;;;;;;;;;;;20.52;34.19;100840.28;4870873;28;98697;-77
2022/05/30 11:58:53;;;;;;;;;;;;;;;21.47;32.95;100841.88;4874540;28;99538;-77
2022/05/30 12:01:21;;;;;;;;;;;;;;;20.97;33.52;100837.75;4870912;28;99037;-80
2022/05/30 12:04:13;;;;;;;;;;;;;;;21.33;32.62;100842.97;4870885;28;98064;-77
2022/05/30 12:06:56;;;;;;;;;;;;;;;21.53;32.58;100841.38;4872145;28;97103;-78
2022/05/30 12:09:41;;;;;;;;;;;;;;;22.08;31.36;100839.66;4874121;28;99465;-78
2022/05/30 12:12:14;;;;;;;;;;;;;;;22.42;30.70;100835.91;4866610;28;99073;-78
2022/05/30 12:14:58;;;;;;;;;;;;;;;21.80;31.06;100835.63;4870533;28;96951;-80
2022/05/30 12:17:29;;;;;;;;;;;;;;;21.00;32.84;100841.03;4873715;28;96817;-78
2022/05/30 12:25:48;;;;;;;;;;;;;;;20.81;32.35;100837.22;4871489;28;96845;-78
2022/05/30 12:28:34;;;;;;;;;;;;;;;21.27;31.59;100843.44;4874776;28;96852;-77
2022/05/30 12:31:01;;;;;;;;;;;;;;;21.64;31.48;100837.84;4872559;28;100318;-79
2022/05/30 12:33:45;;;;;;;;;;;;;;;20.84;32.64;100850.41;4873710;28;99176;-77
2022/05/30 12:36:26;;;;;;;;;;;;;;;21.20;31.88;100857.50;4873027;28;96889;-77
2022/05/30 12:38:53;;;;;;;;;;;;;;;20.94;31.95;100856.78;4875515;28;97417;-77
2022/05/30 12:41:23;;;;;;;;;;;;;;;21.75;30.64;100853.97;4875821;28;97807;-79
2022/05/30 12:43:49;;;;;;;;;;;;;;;21.78;30.20;100849.22;4873704;28;98841;-77
2022/05/30 12:46:25;;;;;;;;;;;;;;;20.93;31.74;100852.41;4877934;28;96862;-78
2022/05/30 12:48:59;;;;;;;;;;;;;;;21.33;31.16;100847.50;4874623;28;97718;-79
2022/05/30 12:51:27;;;;;;;;;;;;;;;21.38;30.81;100851.53;4866731;28;97131;-81
2022/05/30 12:54:16;;;;;;;;;;;;;;;21.70;30.30;100843.59;4870419;28;98969;-80
2022/05/30 12:57:01;;;;;;;;;;;;;;;20.70;31.53;100838.03;4877007;28;96725;-79
2022/05/30 12:59:33;;;;;;;;;;;;;;;22.45;29.73;100843.69;4873641;28;96866;-80
2022/05/30 13:02:00;;;;;;;;;;;;;;;21.53;30.52;100854.81;4871486;28;102617;-78
2022/05/30 13:04:29;;;;;;;;;;;;;;;21.94;29.90;100856.03;4872252;28;96812;-79
2022/05/30 13:07:10;;;;;;;;;;;;;;;22.39;29.65;100841.53;4872117;28;96849;-79
2022/05/30 13:09:37;;;;;;;;;;;;;;;22.87;28.60;100838.41;4871809;28;97760;-78
2022/05/30 13:12:09;;;;;;;;;;;;;;;23.70;27.08;100841.03;4870630;28;99277;-80